Here is the Quick Look data you requested

The Data originates at the National Weather Service, and is made available here by the UAlbany Department of Atmospheric and Environmental Sciences

Surface Observations

KCVG 220952Z 30010KT 10SM CLR M03/M06 A3020 RMK AO2 SLP232 T10281056=
KCVG 221052Z 29008KT 10SM CLR M04/M06 A3021 RMK AO2 SLP236 T10391061=
KCVG 221152Z VRB04KT 10SM CLR M06/M07 A3022 RMK AO2 SLP243 4/004 70003
 T10561072 11017 21061 53014=
KCVG 221252Z 00000KT 10SM CLR M03/M06 A3025 RMK AO2 SLP250 T10331056 $=
KCVG 221352Z 31009KT 10SM CLR M02/M05 A3027 RMK AO2 SLP258 T10171050=
KCVG 221452Z 32007KT 10SM CLR 00/M04 A3029 RMK AO2 SLP262 T00001039 51020=
KCVG 221552Z 32008KT 10SM FEW028 02/M04 A3030 RMK AO2 SLP267 T00171039=
KCVG 221652Z 29009KT 10SM FEW030 03/M04 A3030 RMK AO2 SLP268 T00281044=
KCVG 221752Z 29010KT 10SM FEW034 04/M03 A3030 RMK AO2 SLP267 4/002 933003
 T00391028 10039 21072 50006=
KCVG 221852Z 27010KT 10SM FEW035 04/M03 A3030 RMK AO2 SLP265 T00441028=
KCVG 221952Z 28009KT 10SM FEW038 05/M03 A3028 RMK AO2 SLP261 T00501028=
KCVG 222052Z 31012G19KT 10SM FEW041 06/M04 A3028 RMK AO2 SLP258 T00561039 58009=
KCVG 222152Z 31008G17KT 10SM FEW041 06/M04 A3027 RMK AO2 SLP255 T00611039=
KCVG 222252Z 32008KT 10SM FEW040 06/M04 A3027 RMK AO2 SLP256 T00611044=
KCVG 222352Z 28004KT 10SM CLR 04/M04 A3027 RMK AO2 SLP257 4/001 T00391039 10067
 20033 56002=
KCVG 230052Z 00000KT 10SM CLR 02/M04 A3027 RMK AO2 SLP257 T00221044=
KCVG 230152Z 00000KT 10SM CLR 02/M04 A3028 RMK AO2 SLP260 T00221044=
KCVG 230252Z 00000KT 10SM CLR M01/M04 A3028 RMK AO2 SLP261 T10061044 53005=
KCVG 230352Z 23003KT 10SM CLR M02/M03 A3028 RMK AO2 SLP259 T10171033=
KCVG 230452Z 26003KT 10SM CLR 01/M03 A3028 RMK AO2 SLP259 T00061033 400671072=
KCVG 230552Z 33005KT 10SM CLR 00/M05 A3028 RMK AO2 SLP258 T00001050 10039 21017
KCVG 230652Z 33003KT 10SM CLR M01/M06 A3029 RMK AO2 SLP261 T10111056=
KCVG 230752Z 00000KT 10SM CLR M02/M06 A3027 RMK AO2 SLP257 T10221056=
KCVG 230852Z 00000KT 10SM BKN070 M03/M04 A3027 RMK AO2 SLP257 T10331044 58001=
KCVG 230952Z 00000KT 10SM OVC065 M03/M04 A3028 RMK AO2 SLP260 T10331039=